Time;durP1;ratioP1;P1;durP2;ratioP2;P2;SDS_P1;SDS_P2;PMS_P1;PMS_P2;Temp;Humidity;BMP_temperature;BMP_pressure;BME280_temperature;BME280_humidity;BME280_pressure;Samples;Min_cycle;Max_cycle;Signal;HPM_P1;HPM_P2
2022/05/29 00:02:17;;;;;;;1.30;0.35;;;14.10;64.10;;;;;;5013115;28;20045;-62
2022/05/29 00:04:44;;;;;;;1.42;0.60;;;14.10;64.00;;;;;;5029618;28;20021;-61
2022/05/29 00:07:14;;;;;;;1.45;0.30;;;14.20;65.00;;;;;;5014845;28;20420;-61
2022/05/29 00:09:47;;;;;;;0.30;0.25;;;14.30;63.60;;;;;;5028807;28;20033;-60
2022/05/29 00:12:16;;;;;;;3.53;0.40;;;14.40;62.50;;;;;;4992174;28;20030;-61
2022/05/29 00:14:45;;;;;;;0.55;0.30;;;14.40;61.40;;;;;;5015924;28;20386;-61
2022/05/29 00:17:12;;;;;;;5.25;0.40;;;14.50;61.80;;;;;;5021205;28;20501;-61
2022/05/29 00:19:40;;;;;;;0.55;0.30;;;14.50;60.90;;;;;;5014084;28;20746;-61
2022/05/29 00:22:10;;;;;;;2.25;0.30;;;14.60;60.80;;;;;;5010402;28;20066;-62
2022/05/29 00:24:37;;;;;;;1.40;0.52;;;14.70;61.50;;;;;;5027597;28;20029;-63
2022/05/29 00:27:05;;;;;;;0.52;0.30;;;14.70;60.70;;;;;;5023398;28;20029;-62
2022/05/29 00:29:35;;;;;;;0.98;0.20;;;14.80;59.80;;;;;;5024267;28;20554;-62
2022/05/29 00:32:04;;;;;;;1.77;0.50;;;14.90;59.10;;;;;;5021492;28;20034;-62
2022/05/29 00:34:31;;;;;;;0.95;0.55;;;14.90;57.90;;;;;;5018164;28;20029;-62
2022/05/29 00:36:59;;;;;;;4.18;0.32;;;15.00;59.10;;;;;;5010118;28;20072;-62
2022/05/29 00:39:28;;;;;;;1.67;0.28;;;15.10;60.00;;;;;;5015239;28;20444;-62
2022/05/29 00:41:56;;;;;;;1.40;0.40;;;15.20;58.00;;;;;;5017424;28;20112;-61
2022/05/29 00:44:26;;;;;;;0.52;0.30;;;15.30;58.40;;;;;;5010610;28;20021;-62
2022/05/29 00:47:10;;;;;;;1.70;0.60;;;15.40;58.70;;;;;;5010516;28;20398;-62
2022/05/29 00:49:40;;;;;;;3.67;0.40;;;15.50;58.00;;;;;;5026379;28;20026;-62
2022/05/29 00:52:21;;;;;;;1.00;0.40;;;15.50;57.30;;;;;;5012972;28;20033;-62
2022/05/29 00:54:53;;;;;;;6.03;0.75;;;15.50;55.60;;;;;;5011398;28;20025;-64
2022/05/29 00:57:38;;;;;;;0.73;0.30;;;15.50;57.40;;;;;;5011978;28;20033;-63
2022/05/29 01:00:25;;;;;;;2.30;0.20;;;15.70;56.40;;;;;;5012127;28;20101;-64
2022/05/29 01:02:58;;;;;;;0.95;0.45;;;15.80;56.40;;;;;;5017247;28;20026;-62
2022/05/29 01:05:27;;;;;;;0.50;0.40;;;15.80;55.30;;;;;;5020215;28;20414;-62
2022/05/29 01:08:26;;;;;;;0.65;0.30;;;15.80;54.80;;;;;;5013490;28;20427;-63
2022/05/29 01:11:02;;;;;;;0.38;0.20;;;15.80;55.10;;;;;;5006442;28;20113;-62
2022/05/29 01:13:42;;;;;;;0.75;0.20;;;15.80;55.00;;;;;;5010701;28;20026;-64
2022/05/29 01:16:36;;;;;;;3.42;0.60;;;15.90;55.00;;;;;;5007004;28;20379;-64
2022/05/29 01:19:24;;;;;;;0.52;0.30;;;15.90;55.70;;;;;;4999218;28;20490;-63
2022/05/29 01:22:20;;;;;;;0.57;0.50;;;16.00;54.40;;;;;;5019397;28;20045;-63
2022/05/29 01:25:17;;;;;;;3.35;0.60;;;16.00;54.30;;;;;;5018993;28;20053;-62
2022/05/29 01:28:07;;;;;;;0.65;0.30;;;16.10;55.00;;;;;;5004937;28;20529;-62
2022/05/29 01:30:47;;;;;;;1.35;0.22;;;16.10;52.30;;;;;;5023203;28;20078;-61
2022/05/29 01:33:17;;;;;;;1.70;0.40;;;16.20;54.10;;;;;;5010276;28;20021;-62
2022/05/29 01:36:30;;;;;;;2.28;1.10;;;16.20;53.70;;;;;;5015517;28;20132;-62
2022/05/29 01:39:44;;;;;;;0.52;0.30;;;16.30;55.40;;;;;;5014666;28;20529;-62
2022/05/29 01:42:49;;;;;;;2.03;0.28;;;16.30;54.10;;;;;;5001864;28;20037;-61
2022/05/29 01:45:17;;;;;;;1.38;0.25;;;16.30;54.50;;;;;;5000267;28;20056;-63
2022/05/29 01:47:55;;;;;;;1.90;1.08;;;16.30;54.80;;;;;;5009062;28;20042;-62
2022/05/29 01:50:43;;;;;;;0.35;0.30;;;16.30;54.00;;;;;;5006699;28;20018;-62
2022/05/29 01:53:19;;;;;;;2.05;1.20;;;16.30;55.30;;;;;;5006611;28;20025;-62
2022/05/29 01:55:51;;;;;;;0.40;0.30;;;16.30;54.40;;;;;;5009854;28;20022;-62
2022/05/29 01:58:25;;;;;;;1.83;0.35;;;16.30;55.50;;;;;;4989323;28;20026;-63
2022/05/29 02:00:57;;;;;;;0.32;0.30;;;16.50;56.00;;;;;;5009080;28;20131;-63
2022/05/29 02:03:34;;;;;;;0.47;0.32;;;16.50;55.50;;;;;;5011426;28;20394;-63
2022/05/29 02:06:18;;;;;;;1.67;0.47;;;16.60;55.70;;;;;;5008221;28;20513;-62
2022/05/29 02:08:59;;;;;;;3.10;1.00;;;16.70;54.70;;;;;;5009170;28;20029;-63
2022/05/29 02:11:31;;;;;;;0.40;0.20;;;16.70;54.20;;;;;;5007959;28;20026;-63
2022/05/29 02:14:01;;;;;;;4.05;1.33;;;16.80;53.70;;;;;;5009625;28;20026;-63
2022/05/29 02:16:36;;;;;;;0.40;0.40;;;16.90;55.20;;;;;;5010268;28;20513;-63
2022/05/29 02:19:06;;;;;;;1.17;0.38;;;16.80;53.20;;;;;;5013755;28;20029;-63
2022/05/29 02:21:42;;;;;;;1.23;0.32;;;16.90;53.90;;;;;;5013798;28;20037;-61
2022/05/29 02:24:15;;;;;;;0.75;0.43;;;17.00;53.70;;;;;;5013549;28;20096;-62
2022/05/29 02:26:57;;;;;;;0.82;0.40;;;16.90;54.80;;;;;;5013837;28;20025;-62
2022/05/29 02:29:25;;;;;;;0.30;0.30;;;16.90;53.60;;;;;;5013724;28;20041;-62
2022/05/29 02:32:16;;;;;;;0.88;0.45;;;16.90;53.30;;;;;;5013508;28;20022;-62
2022/05/29 02:35:16;;;;;;;4.15;1.25;;;16.90;53.20;;;;;;5013928;28;20069;-62
2022/05/29 02:37:59;;;;;;;4.20;2.20;;;16.80;53.80;;;;;;4971862;28;20085;-62
2022/05/29 02:40:49;;;;;;;1.30;0.57;;;16.80;52.00;;;;;;5002809;28;20030;-61
2022/05/29 02:43:16;;;;;;;1.60;0.80;;;16.80;52.80;;;;;;5013981;28;20026;-62
2022/05/29 02:45:50;;;;;;;1.75;0.80;;;16.90;52.70;;;;;;5012899;28;20026;-62
2022/05/29 02:48:46;;;;;;;2.22;1.17;;;16.90;53.00;;;;;;5011646;28;20537;-62
2022/05/29 02:51:40;;;;;;;1.58;0.40;;;16.90;55.30;;;;;;5011760;28;20080;-62
2022/05/29 02:54:12;;;;;;;3.42;0.40;;;17.00;54.00;;;;;;5012076;28;20088;-63
2022/05/29 02:56:40;;;;;;;1.67;1.00;;;17.10;55.20;;;;;;5011505;28;20026;-63
2022/05/29 02:59:07;;;;;;;2.20;0.77;;;17.20;54.20;;;;;;5012210;28;20029;-62
2022/05/29 03:02:04;;;;;;;0.65;0.30;;;17.10;51.00;;;;;;5011873;28;20033;-62
2022/05/29 03:04:34;;;;;;;1.02;0.47;;;17.10;52.20;;;;;;5012167;28;20049;-63
2022/05/29 03:07:19;;;;;;;1.45;0.30;;;17.10;52.00;;;;;;5011404;28;20029;-63
2022/05/29 03:10:07;;;;;;;1.50;0.20;;;17.10;52.50;;;;;;5011297;28;20109;-64
2022/05/29 03:12:44;;;;;;;0.45;0.35;;;17.00;50.40;;;;;;5019315;28;20375;-62
2022/05/29 03:15:35;;;;;;;0.30;0.25;;;17.00;51.50;;;;;;5010240;28;20490;-62
2022/05/29 03:18:24;;;;;;;0.50;0.30;;;17.10;52.60;;;;;;5007472;28;20026;-62
2022/05/29 03:21:23;;;;;;;0.38;0.20;;;17.10;53.00;;;;;;5009664;28;20045;-62
2022/05/29 03:23:56;;;;;;;0.52;0.22;;;17.30;52.90;;;;;;5012515;28;20125;-62
2022/05/29 03:26:39;;;;;;;1.52;0.30;;;17.20;52.60;;;;;;5009765;28;20044;-62
2022/05/29 03:29:23;;;;;;;0.70;0.30;;;17.20;50.20;;;;;;5007212;28;20037;-62
2022/05/29 03:31:51;;;;;;;1.70;0.77;;;17.20;49.50;;;;;;5010187;28;20048;-63
2022/05/29 03:34:21;;;;;;;1.27;0.50;;;17.20;49.50;;;;;;5010475;28;20030;-62
2022/05/29 03:36:50;;;;;;;1.70;0.88;;;17.10;51.20;;;;;;5007634;28;20482;-62
2022/05/29 03:39:18;;;;;;;3.42;2.05;;;17.20;52.00;;;;;;5010618;28;20495;-62
2022/05/29 03:41:51;;;;;;;0.80;0.45;;;17.20;49.90;;;;;;5009468;28;20069;-61
2022/05/29 03:44:21;;;;;;;2.17;0.50;;;17.20;51.70;;;;;;4992163;28;20026;-62
2022/05/29 03:46:49;;;;;;;1.88;0.68;;;17.10;51.40;;;;;;5008560;28;20030;-63
2022/05/29 03:49:19;;;;;;;4.22;0.98;;;17.00;51.40;;;;;;5010346;28;20021;-62
2022/05/29 03:51:46;;;;;;;1.52;0.50;;;17.00;51.70;;;;;;5009434;28;20022;-63
2022/05/29 03:54:14;;;;;;;0.20;0.20;;;17.00;50.40;;;;;;5008942;28;20470;-63
2022/05/29 03:56:42;;;;;;;1.23;0.65;;;17.00;51.70;;;;;;5009932;28;20109;-63
2022/05/29 03:59:09;;;;;;;2.03;1.00;;;17.00;51.40;;;;;;4992415;28;20026;-63
2022/05/29 04:01:37;;;;;;;2.83;0.88;;;17.00;52.20;;;;;;5010521;28;20054;-63
2022/05/29 04:04:05;;;;;;;3.47;1.50;;;16.90;52.30;;;;;;5010237;28;20494;-62
2022/05/29 04:06:34;;;;;;;3.80;1.20;;;16.90;52.40;;;;;;5009608;28;20036;-62
2022/05/29 04:12:05;;;;;;;2.13;1.00;;;17.00;52.70;;;;;;5011522;28;20056;-63
2022/05/29 04:14:39;;;;;;;3.90;1.15;;;16.90;52.70;;;;;;5011293;28;20459;-63
2022/05/29 04:17:08;;;;;;;2.17;1.33;;;16.90;53.00;;;;;;4994021;28;20406;-62
2022/05/29 04:19:35;;;;;;;0.73;0.40;;;16.90;51.50;;;;;;5020474;28;20114;-62
2022/05/29 04:22:08;;;;;;;0.63;0.50;;;16.80;51.70;;;;;;5010910;28;20030;-63
2022/05/29 04:24:35;;;;;;;1.73;1.00;;;16.80;52.10;;;;;;5009667;28;20091;-64
2022/05/29 04:27:02;;;;;;;0.65;0.40;;;16.80;51.90;;;;;;5008320;28;20505;-63
2022/05/29 04:29:30;;;;;;;0.98;0.30;;;16.80;53.00;;;;;;4992014;28;20022;-63
2022/05/29 04:34:44;;;;;;;2.53;1.60;;;16.70;53.50;;;;;;5009740;28;20443;-63
2022/05/29 04:37:11;;;;;;;1.20;0.47;;;16.60;53.30;;;;;;5007534;28;20026;-63
2022/05/29 04:39:38;;;;;;;0.30;0.20;;;16.60;53.60;;;;;;5010094;28;20021;-63
2022/05/29 04:42:06;;;;;;;3.22;1.08;;;16.60;52.30;;;;;;5009437;28;20469;-61
2022/05/29 04:44:33;;;;;;;2.00;0.30;;;16.40;53.70;;;;;;5010697;28;20037;-62
2022/05/29 04:47:01;;;;;;;1.85;0.40;;;16.50;53.80;;;;;;5009582;28;20065;-62
2022/05/29 04:49:29;;;;;;;1.02;0.50;;;16.40;52.90;;;;;;5011714;28;20074;-61
2022/05/29 04:51:57;;;;;;;2.05;0.50;;;16.40;53.00;;;;;;5010778;28;20117;-61
2022/05/29 04:54:24;;;;;;;0.20;0.20;;;16.40;53.50;;;;;;5009989;28;20025;-62
2022/05/29 04:56:51;;;;;;;6.93;3.60;;;16.40;53.90;;;;;;5006201;28;20120;-63
2022/05/29 04:59:19;;;;;;;3.30;0.43;;;16.40;53.60;;;;;;5010089;28;20044;-64
2022/05/29 05:01:46;;;;;;;0.68;0.40;;;16.30;53.60;;;;;;5010863;28;20045;-62
2022/05/29 05:04:13;;;;;;;0.57;0.30;;;16.30;53.50;;;;;;4992230;28;20022;-63
2022/05/29 05:06:40;;;;;;;0.28;0.20;;;16.20;52.90;;;;;;5009271;28;20053;-61
2022/05/29 05:09:08;;;;;;;0.20;0.20;;;16.20;53.80;;;;;;5008823;28;20186;-62
2022/05/29 05:11:35;;;;;;;2.58;0.30;;;16.10;53.60;;;;;;5008655;28;20060;-61
2022/05/29 05:14:02;;;;;;;0.63;0.20;;;16.10;53.60;;;;;;5003714;28;20058;-62
2022/05/29 05:16:29;;;;;;;0.40;0.30;;;16.00;54.00;;;;;;5006203;28;20025;-63
2022/05/29 05:18:56;;;;;;;2.97;0.30;;;16.00;54.90;;;;;;5008062;28;20384;-62
2022/05/29 05:21:24;;;;;;;0.85;0.40;;;15.90;54.50;;;;;;5004812;28;20025;-63
2022/05/29 05:23:51;;;;;;;0.57;0.30;;;15.90;55.80;;;;;;5008244;28;20021;-63
2022/05/29 05:26:19;;;;;;;0.13;0.13;;;15.90;54.30;;;;;;5004933;28;20398;-62
2022/05/29 05:28:46;;;;;;;1.17;0.35;;;15.80;55.10;;;;;;5001234;28;20021;-62
2022/05/29 05:31:14;;;;;;;1.77;0.57;;;15.80;55.50;;;;;;5009139;28;20383;-63
2022/05/29 05:33:41;;;;;;;0.70;0.47;;;15.70;55.20;;;;;;5008572;28;20030;-62
2022/05/29 05:36:10;;;;;;;0.90;0.43;;;15.60;55.10;;;;;;5003061;28;20025;-62
2022/05/29 05:38:38;;;;;;;2.92;0.90;;;15.60;55.40;;;;;;5010152;28;20116;-64
2022/05/29 05:41:05;;;;;;;3.33;1.60;;;15.50;55.60;;;;;;5013350;28;20026;-63
2022/05/29 05:43:32;;;;;;;0.30;0.30;;;15.50;54.60;;;;;;5004288;28;20029;-62
2022/05/29 05:45:59;;;;;;;3.15;1.85;;;15.50;55.50;;;;;;5009472;28;20475;-61
2022/05/29 05:48:30;;;;;;;6.72;2.80;;;15.40;55.80;;;;;;5016537;28;20042;-61
2022/05/29 05:50:58;;;;;;;4.95;2.10;;;15.30;55.10;;;;;;5014118;28;20030;-63
2022/05/29 05:53:26;;;;;;;5.97;2.40;;;15.30;55.20;;;;;;5008116;28;20431;-62
2022/05/29 05:55:53;;;;;;;6.65;2.55;;;15.30;55.00;;;;;;5011362;28;20034;-61
2022/05/29 05:58:21;;;;;;;6.20;3.15;;;15.20;56.00;;;;;;5011707;28;20120;-61
2022/05/29 06:00:49;;;;;;;23.60;3.20;;;15.20;56.20;;;;;;5009223;28;20033;-62
2022/05/29 06:03:17;;;;;;;4.57;2.38;;;15.10;56.30;;;;;;5012347;28;20018;-62
2022/05/29 06:05:45;;;;;;;37.78;16.00;;;15.10;55.60;;;;;;5020611;28;20085;-62
2022/05/29 06:08:12;;;;;;;4.88;2.40;;;15.10;56.50;;;;;;5008867;28;20030;-62
2022/05/29 06:10:39;;;;;;;24.50;11.90;;;14.90;57.30;;;;;;5016085;28;20402;-61
2022/05/29 06:13:10;;;;;;;5.50;1.38;;;14.80;57.80;;;;;;5024125;28;20052;-61
2022/05/29 06:15:38;;;;;;;1.63;0.60;;;14.70;58.10;;;;;;5009570;28;20044;-64
2022/05/29 06:18:06;;;;;;;0.63;0.38;;;14.60;58.60;;;;;;5013556;28;20434;-61
2022/05/29 06:20:33;;;;;;;1.20;0.60;;;14.60;59.20;;;;;;5003546;28;20087;-62
2022/05/29 06:23:00;;;;;;;0.57;0.50;;;14.50;60.00;;;;;;5014454;28;20053;-62
2022/05/29 06:25:28;;;;;;;1.17;0.47;;;14.40;60.40;;;;;;5003533;28;20553;-62
2022/05/29 06:27:55;;;;;;;0.88;0.30;;;14.30;61.20;;;;;;5009174;28;20029;-62
2022/05/29 06:30:23;;;;;;;1.60;0.40;;;14.20;61.20;;;;;;5008257;28;20578;-62
2022/05/29 06:32:50;;;;;;;0.30;0.30;;;14.10;61.60;;;;;;5008396;28;20074;-62
2022/05/29 06:35:17;;;;;;;0.65;0.40;;;14.00;62.10;;;;;;5000547;28;20399;-63
2022/05/29 06:37:44;;;;;;;0.47;0.30;;;14.00;62.30;;;;;;5009257;28;20030;-63
2022/05/29 06:40:13;;;;;;;1.05;0.38;;;13.80;62.60;;;;;;5007391;28;20117;-62
2022/05/29 06:42:41;;;;;;;4.38;1.52;;;13.70;62.70;;;;;;4987311;28;20042;-62
2022/05/29 06:45:09;;;;;;;1.95;0.35;;;13.60;62.80;;;;;;5005276;28;20025;-61
2022/05/29 06:47:39;;;;;;;0.85;0.43;;;13.50;62.50;;;;;;5004893;28;20062;-62
2022/05/29 06:50:08;;;;;;;0.88;0.20;;;13.40;62.90;;;;;;5004360;28;20054;-62
2022/05/29 06:52:35;;;;;;;0.82;0.43;;;13.30;63.40;;;;;;5005195;28;20513;-60
2022/05/29 06:55:04;;;;;;;1.27;0.30;;;13.10;64.70;;;;;;5003515;28;20049;-61
2022/05/29 06:57:37;;;;;;;5.45;0.43;;;13.00;64.20;;;;;;5008041;28;20030;-62
2022/05/29 07:08:25;;;;;;;1.42;0.80;;;12.40;66.90;;;;;;5012496;28;20083;-61
2022/05/29 07:10:54;;;;;;;3.10;1.10;;;12.30;66.90;;;;;;4998755;28;20410;-61
2022/05/29 07:13:22;;;;;;;2.05;1.00;;;12.10;66.80;;;;;;4999763;28;20018;-60
2022/05/29 07:15:49;;;;;;;4.78;1.20;;;12.10;67.50;;;;;;4995818;28;20088;-61
2022/05/29 07:18:17;;;;;;;3.80;0.90;;;12.00;67.80;;;;;;5009481;28;20140;-60
2022/05/29 07:20:44;;;;;;;1.48;0.70;;;11.90;67.70;;;;;;5002152;28;20033;-61
2022/05/29 07:23:14;;;;;;;1.60;0.73;;;11.80;68.30;;;;;;5008746;28;20030;-62
2022/05/29 07:25:42;;;;;;;2.80;0.70;;;11.80;68.50;;;;;;5009023;28;20033;-61
2022/05/29 07:28:09;;;;;;;1.00;0.63;;;11.70;68.80;;;;;;5009019;28;20445;-60
2022/05/29 07:30:37;;;;;;;1.83;0.70;;;11.60;69.10;;;;;;4991061;28;20026;-61
2022/05/29 07:33:05;;;;;;;0.47;0.45;;;11.50;69.50;;;;;;5008979;28;20026;-61
2022/05/29 07:35:32;;;;;;;4.18;0.40;;;11.40;69.40;;;;;;5008724;28;20041;-60
2022/05/29 07:38:01;;;;;;;4.93;1.92;;;11.40;69.30;;;;;;5006040;28;20469;-60
2022/05/29 07:40:28;;;;;;;2.08;1.20;;;11.50;68.90;;;;;;5006382;28;20033;-61
2022/05/29 07:45:41;;;;;;;1.85;0.60;;;11.40;69.20;;;;;;5002993;28;20172;-61
2022/05/29 07:48:09;;;;;;;1.42;0.50;;;11.30;69.90;;;;;;5008390;28;20694;-61
2022/05/29 07:50:36;;;;;;;0.98;0.70;;;11.30;70.30;;;;;;5008055;28;20491;-63
2022/05/29 07:53:04;;;;;;;0.93;0.70;;;11.20;70.40;;;;;;5008045;28;20614;-63
2022/05/29 07:55:32;;;;;;;0.85;0.55;;;11.20;70.10;;;;;;5008360;28;20022;-62
2022/05/29 07:57:59;;;;;;;2.22;0.68;;;11.10;70.70;;;;;;5008243;28;20030;-61
2022/05/29 08:00:26;;;;;;;1.15;0.55;;;11.00;70.80;;;;;;5011469;28;20106;-61
2022/05/29 08:02:53;;;;;;;1.30;0.52;;;11.10;71.00;;;;;;5014165;28;20045;-61
2022/05/29 08:05:21;;;;;;;4.60;1.20;;;11.00;70.60;;;;;;5008144;28;20025;-62
2022/05/29 08:07:49;;;;;;;1.48;0.63;;;11.00;70.80;;;;;;5008864;28;20034;-66
2022/05/29 08:10:20;;;;;;;1.33;0.55;;;10.80;71.50;;;;;;5009286;28;20026;-62
2022/05/29 08:12:48;;;;;;;1.40;0.65;;;10.60;72.00;;;;;;4985097;28;20080;-56
2022/05/29 08:15:15;;;;;;;1.77;0.65;;;10.30;72.80;;;;;;5007848;28;20021;-58
2022/05/29 08:17:43;;;;;;;2.22;0.82;;;10.10;74.00;;;;;;5011395;28;20030;-57
2022/05/29 08:20:13;;;;;;;1.38;0.60;;;10.00;75.00;;;;;;5009409;28;20080;-56
2022/05/29 08:22:40;;;;;;;3.03;0.82;;;9.90;76.40;;;;;;5006589;28;20038;-55
2022/05/29 08:30:46;;;;;;;4.22;1.02;;;9.50;78.20;;;;;;5009373;28;20156;-55
2022/05/29 08:33:20;;;;;;;2.90;1.17;;;9.30;78.20;;;;;;5017729;28;20021;-57
2022/05/29 08:35:50;;;;;;;2.47;1.10;;;9.20;79.30;;;;;;5007648;28;20029;-58
2022/05/29 08:38:18;;;;;;;1.98;1.00;;;9.10;79.40;;;;;;5015717;28;20349;-56
2022/05/29 08:40:51;;;;;;;1.95;1.17;;;9.00;80.70;;;;;;5011004;28;20037;-54
2022/05/29 08:43:29;;;;;;;2.00;1.00;;;8.90;81.80;;;;;;5009209;28;20037;-57
2022/05/29 08:45:59;;;;;;;4.07;1.70;;;8.80;82.50;;;;;;5007948;28;20026;-58
2022/05/29 08:48:27;;;;;;;3.15;1.45;;;8.70;82.80;;;;;;5005612;28;20694;-54
2022/05/29 08:51:26;;;;;;;4.13;2.13;;;8.70;83.40;;;;;;5005947;28;20491;-58
2022/05/29 08:54:10;;;;;;;8.05;2.15;;;8.80;83.70;;;;;;5008567;28;20486;-53
2022/05/29 08:56:50;;;;;;;6.50;1.77;;;8.80;83.70;;;;;;5007139;28;20096;-64
2022/05/29 08:59:23;;;;;;;3.47;1.73;;;8.80;82.70;;;;;;5008351;28;20021;-57
2022/05/29 09:02:14;;;;;;;3.78;1.60;;;9.10;80.60;;;;;;5003076;28;20049;-58
2022/05/29 09:04:50;;;;;;;2.97;1.17;;;9.10;80.20;;;;;;5004316;28;20025;-57
2022/05/29 09:07:22;;;;;;;2.65;1.13;;;9.30;78.70;;;;;;5008260;28;20044;-57
2022/05/29 09:09:54;;;;;;;5.40;1.50;;;9.40;78.30;;;;;;5005294;28;20541;-57
2022/05/29 09:12:34;;;;;;;2.80;0.93;;;9.40;77.60;;;;;;5007603;28;20014;-55
2022/05/29 09:15:13;;;;;;;1.52;0.82;;;9.50;76.60;;;;;;5004174;28;20534;-55
2022/05/29 09:17:52;;;;;;;1.70;0.90;;;9.50;76.60;;;;;;5005092;28;20025;-57
2022/05/29 09:20:43;;;;;;;0.93;0.65;;;9.40;76.50;;;;;;5009962;28;20821;-58
2022/05/29 09:23:27;;;;;;;1.08;0.75;;;9.60;76.00;;;;;;4991069;28;20046;-58
2022/05/29 09:25:56;;;;;;;1.77;0.60;;;9.60;76.00;;;;;;5004226;28;20080;-57
2022/05/29 09:28:35;;;;;;;2.30;0.65;;;9.50;75.50;;;;;;5005473;28;20410;-53
2022/05/29 09:31:07;;;;;;;1.63;0.60;;;9.40;76.00;;;;;;5003464;28;20030;-54
2022/05/29 09:33:37;;;;;;;1.90;0.63;;;9.40;76.30;;;;;;5005033;28;20042;-57
2022/05/29 09:36:16;;;;;;;1.52;0.60;;;9.40;75.90;;;;;;5007126;28;20130;-58
2022/05/29 09:38:56;;;;;;;1.40;0.77;;;9.30;75.60;;;;;;5002453;28;20037;-56
2022/05/29 09:41:37;;;;;;;2.05;0.70;;;9.20;76.00;;;;;;5004037;28;20042;-58
2022/05/29 09:44:10;;;;;;;2.17;0.68;;;9.10;76.50;;;;;;5005935;28;20014;-55
2022/05/29 09:46:46;;;;;;;0.70;0.57;;;8.90;77.10;;;;;;5007358;28;20029;-58
2022/05/29 09:49:42;;;;;;;2.85;0.73;;;8.70;77.40;;;;;;5004973;28;20125;-59
2022/05/29 09:52:17;;;;;;;2.53;0.52;;;8.60;77.80;;;;;;5004597;28;20018;-56
2022/05/29 09:54:55;;;;;;;1.67;0.70;;;8.40;78.40;;;;;;5002410;28;20574;-55
2022/05/29 09:57:27;;;;;;;2.33;1.00;;;8.40;79.10;;;;;;5000735;28;20034;-57
2022/05/29 10:00:35;;;;;;;3.08;0.95;;;8.20;79.60;;;;;;5005831;28;20120;-57
2022/05/29 10:03:09;;;;;;;1.90;0.73;;;8.10;80.00;;;;;;5004858;28;20402;-56
2022/05/29 10:05:40;;;;;;;4.45;1.30;;;8.00;80.50;;;;;;5006525;28;20034;-55
2022/05/29 10:08:30;;;;;;;5.15;0.80;;;7.90;81.10;;;;;;4988111;28;20030;-55
2022/05/29 10:11:22;;;;;;;2.50;1.00;;;7.80;81.00;;;;;;5007226;28;20038;-56
2022/05/29 10:13:52;;;;;;;1.40;0.80;;;7.60;81.30;;;;;;5005540;28;20022;-58
2022/05/29 10:16:33;;;;;;;3.22;1.20;;;7.50;81.90;;;;;;5017044;28;20022;-58
2022/05/29 10:19:01;;;;;;;1.48;0.73;;;7.40;82.60;;;;;;5006368;28;20465;-57
2022/05/29 10:21:38;;;;;;;3.20;0.80;;;7.30;82.70;;;;;;5007131;28;20656;-57
2022/05/29 10:24:26;;;;;;;5.88;1.08;;;7.20;83.60;;;;;;5002373;28;20022;-54
2022/05/29 10:26:59;;;;;;;1.90;0.90;;;7.10;84.00;;;;;;4998987;28;20022;-56
2022/05/29 10:29:31;;;;;;;7.45;1.05;;;7.00;84.10;;;;;;5004639;28;20097;-57
2022/05/29 10:32:01;;;;;;;0.90;0.68;;;6.90;84.70;;;;;;5004847;28;20032;-56
2022/05/29 10:34:38;;;;;;;1.67;0.73;;;6.80;86.20;;;;;;5005313;28;20458;-57
2022/05/29 10:37:36;;;;;;;2.10;1.10;;;6.70;86.30;;;;;;4991846;28;20113;-58
2022/05/29 10:40:21;;;;;;;1.13;0.80;;;6.60;87.00;;;;;;5008397;28;20489;-57
2022/05/29 10:42:52;;;;;;;2.80;0.98;;;6.60;87.50;;;;;;5002840;28;20458;-56
2022/05/29 10:45:19;;;;;;;2.33;1.10;;;6.50;87.00;;;;;;5009155;28;20037;-60
2022/05/29 10:48:15;;;;;;;2.45;0.95;;;6.50;87.40;;;;;;5008942;28;20128;-58
2022/05/29 10:51:04;;;;;;;2.97;1.10;;;6.40;88.10;;;;;;5003842;28;20410;-56
2022/05/29 10:53:42;;;;;;;1.05;0.70;;;6.40;89.00;;;;;;5009369;28;20029;-56
2022/05/29 10:56:22;;;;;;;3.67;0.90;;;6.40;89.10;;;;;;4991914;28;20412;-56
2022/05/29 10:59:21;;;;;;;4.93;0.73;;;6.40;89.20;;;;;;5009270;28;20044;-57
2022/05/29 11:05:24;;;;;;;1.05;0.60;;;6.40;88.60;;;;;;5009288;28;20044;-59
2022/05/29 11:08:31;;;;;;;0.90;0.57;;;6.60;88.80;;;;;;4995314;28;20036;-58
2022/05/29 11:11:16;;;;;;;0.75;0.70;;;6.70;89.40;;;;;;5010191;28;20427;-58
2022/05/29 11:14:01;;;;;;;2.13;1.08;;;6.80;88.50;;;;;;5008527;28;20022;-57
2022/05/29 11:16:37;;;;;;;8.15;0.82;;;6.80;88.90;;;;;;5011686;28;20057;-58
2022/05/29 11:19:23;;;;;;;1.65;0.65;;;6.70;88.60;;;;;;4992709;28;20183;-58
2022/05/29 11:22:20;;;;;;;1.45;0.60;;;6.70;88.60;;;;;;5014846;28;20033;-59
2022/05/29 11:25:44;;;;;;;2.60;1.05;;;6.80;87.90;;;;;;5014978;28;20025;-58
2022/05/29 11:28:42;;;;;;;1.63;0.65;;;6.70;88.20;;;;;;5004053;28;20040;-57
2022/05/29 11:31:22;;;;;;;1.00;0.63;;;6.70;87.90;;;;;;5006908;28;20637;-58
2022/05/29 11:34:20;;;;;;;1.17;0.73;;;6.60;88.70;;;;;;5007423;28;20038;-59
2022/05/29 11:37:25;;;;;;;2.30;0.93;;;6.40;89.10;;;;;;5011752;28;20528;-57
2022/05/29 11:40:10;;;;;;;3.75;0.90;;;6.30;89.40;;;;;;5015234;28;20112;-57
2022/05/29 11:42:43;;;;;;;;;;;6.20;89.50;;;;;;5010187;28;20106;-58
2022/05/29 11:45:19;;;;;;;6.20;1.10;;;6.00;90.20;;;;;;5014365;28;20008;-56
2022/05/29 11:53:41;;;;;;;3.03;0.70;;;6.10;91.00;;;;;;4997408;28;20106;-58
2022/05/29 11:56:17;;;;;;;1.05;0.75;;;6.00;90.90;;;;;;5009773;28;20049;-58
2022/05/29 11:59:11;;;;;;;3.15;2.35;;;5.90;90.90;;;;;;5008778;28;20022;-56
2022/05/29 12:01:44;;;;;;;2.00;1.10;;;5.90;91.00;;;;;;5012606;28;20606;-59
2022/05/29 12:04:37;;;;;;;2.08;1.00;;;5.90;91.40;;;;;;5004831;28;20026;-58
2022/05/29 12:07:11;;;;;;;3.22;1.25;;;5.80;91.40;;;;;;5002550;28;20049;-58
2022/05/29 12:10:22;;;;;;;2.53;1.00;;;5.80;91.60;;;;;;5005358;28;20132;-59
2022/05/29 12:13:01;;;;;;;1.85;1.25;;;5.70;92.00;;;;;;5010801;28;20026;-58
2022/05/29 12:15:33;;;;;;;5.20;1.10;;;5.70;91.80;;;;;;5010366;28;20030;-58
2022/05/29 12:18:15;;;;;;;1.25;0.95;;;5.70;91.70;;;;;;5005493;28;20018;-58
2022/05/29 12:20:56;;;;;;;3.22;1.27;;;5.70;91.60;;;;;;5004570;28;20072;-57
2022/05/29 12:23:26;;;;;;;2.03;1.00;;;5.70;91.90;;;;;;5010429;28;20018;-57
2022/05/29 12:25:57;;;;;;;6.53;1.08;;;5.70;92.00;;;;;;5010199;28;20025;-56
2022/05/29 12:28:44;;;;;;;7.20;1.45;;;5.80;92.00;;;;;;5009843;28;20036;-56
2022/05/29 12:31:38;;;;;;;3.05;0.90;;;5.80;91.20;;;;;;5004820;28;20083;-57
2022/05/29 12:34:08;;;;;;;4.53;0.93;;;5.70;90.50;;;;;;5009963;28;20037;-59
2022/05/29 12:36:53;;;;;;;2.65;0.98;;;5.60;90.60;;;;;;5009261;28;20053;-57
2022/05/29 12:39:34;;;;;;;;;;;5.50;91.00;;;;;;5009531;28;20034;-57
2022/05/29 12:42:23;;;;;;;3.47;2.00;;;5.40;91.90;;;;;;5017328;28;20279;-58
2022/05/29 12:45:10;;;;;;;8.40;3.70;;;5.40;92.20;;;;;;5002694;28;20509;-57
2022/05/29 12:47:43;;;;;;;9.93;4.43;;;5.40;92.20;;;;;;4979371;28;20142;-58
2022/05/29 12:50:43;;;;;;;10.00;5.18;;;5.30;92.20;;;;;;4969083;28;20026;-56
2022/05/29 12:53:19;;;;;;;12.25;6.07;;;5.30;93.00;;;;;;4970264;28;20025;-57
2022/05/29 12:56:26;;;;;;;10.65;5.95;;;5.30;93.50;;;;;;4967633;28;20049;-56
2022/05/29 12:59:09;;;;;;;11.85;6.35;;;5.30;93.00;;;;;;4966220;28;20031;-58
2022/05/29 13:01:42;;;;;;;15.05;7.20;;;5.20;93.10;;;;;;4956250;28;20054;-59
2022/05/29 13:04:15;;;;;;;15.13;7.18;;;5.20;93.70;;;;;;4971620;28;20110;-56
2022/05/29 13:07:13;;;;;;;13.20;7.47;;;5.20;93.70;;;;;;4970684;28;20044;-57
2022/05/29 13:09:49;;;;;;;11.00;6.32;;;5.20;93.60;;;;;;4963412;28;20026;-57
2022/05/29 13:12:29;;;;;;;12.23;6.47;;;5.10;93.40;;;;;;4979922;28;20061;-57
2022/05/29 13:15:00;;;;;;;11.85;6.15;;;5.10;93.50;;;;;;4985154;28;20132;-57
2022/05/29 13:17:33;;;;;;;13.82;6.65;;;5.10;93.80;;;;;;4971795;28;20042;-56
2022/05/29 13:20:11;;;;;;;13.38;7.15;;;5.10;94.10;;;;;;4971544;28;20047;-57
2022/05/29 13:22:54;;;;;;;12.57;6.63;;;5.10;94.30;;;;;;4970883;28;20074;-56
2022/05/29 13:25:26;;;;;;;12.40;7.53;;;5.00;94.40;;;;;;4972619;28;20117;-58
2022/05/29 13:27:54;;;;;;;12.05;6.18;;;5.10;94.30;;;;;;4976954;28;20162;-57
2022/05/29 13:30:36;;;;;;;9.60;6.25;;;5.10;94.20;;;;;;4970196;28;20495;-57
2022/05/29 13:33:25;;;;;;;12.38;5.55;;;5.20;95.20;;;;;;4975045;28;20503;-54
2022/05/29 13:35:53;;;;;;;12.85;5.75;;;5.30;94.90;;;;;;4963771;28;20031;-56
2022/05/29 13:38:45;;;;;;;11.02;5.95;;;5.30;95.00;;;;;;4966652;28;20022;-56
2022/05/29 13:41:50;;;;;;;12.23;6.25;;;5.40;94.30;;;;;;4966796;28;20039;-58
2022/05/29 13:44:33;;;;;;;9.50;6.07;;;5.30;94.20;;;;;;4970295;28;20019;-58
2022/05/29 13:47:25;;;;;;;13.27;6.68;;;5.30;94.20;;;;;;4977947;28;20042;-57
2022/05/29 13:50:05;;;;;;;10.60;6.43;;;5.30;94.40;;;;;;5011437;28;20030;-57
2022/05/29 13:52:44;;;;;;;11.85;5.60;;;5.30;94.40;;;;;;5012155;28;20044;-57
2022/05/29 13:55:19;;;;;;;19.55;6.63;;;5.40;94.80;;;;;;5022034;28;20135;-56
2022/05/29 14:04:01;;;;;;;9.13;4.90;;;5.40;94.30;;;;;;5007320;28;20066;-56
2022/05/29 14:06:34;;;;;;;15.27;6.63;;;5.40;94.30;;;;;;5007112;28;20029;-59
2022/05/29 14:09:13;;;;;;;10.23;4.97;;;5.40;94.20;;;;;;5008073;28;20054;-56
2022/05/29 14:11:52;;;;;;;11.93;5.72;;;5.30;94.30;;;;;;5012498;28;20038;-57
2022/05/29 14:14:44;;;;;;;9.57;5.57;;;5.30;94.10;;;;;;5016592;28;20032;-56